Time;durP1;ratioP1;P1;durP2;ratioP2;P2;SDS_P1;SDS_P2;PMS_P1;PMS_P2;Temp;Humidity;BMP_temperature;BMP_pressure;BME280_temperature;BME280_humidity;BME280_pressure;Samples;Min_cycle;Max_cycle;Signal;HPM_P1;HPM_P2
2023/01/18 00:00:44;;;;;;;3.60;2.80;;;;;;;19.57;48.14;94522.13;4997669;28;20285;-83
2023/01/18 00:03:11;;;;;;;4.47;3.10;;;;;;;18.64;48.26;94359.31;5011381;28;20237;-83
2023/01/18 00:05:39;;;;;;;2.40;2.20;;;;;;;19.56;48.11;94510.25;4994582;28;20230;-83
2023/01/18 00:08:10;;;;;;;3.00;2.60;;;;;;;19.57;48.17;94511.94;5013078;28;20248;-83
2023/01/18 00:10:36;;;;;;;3.77;2.43;;;;;;;17.61;48.12;94178.97;5016639;28;20195;-83
2023/01/18 00:13:03;;;;;;;3.67;2.97;;;;;;;17.71;48.26;94201.72;5012297;28;20198;-83
2023/01/18 00:15:30;;;;;;;4.77;3.10;;;;;;;19.57;48.49;94519.56;4965058;28;20219;-83
2023/01/18 00:17:57;;;;;;;3.57;2.57;;;;;;;19.57;48.01;94522.13;5013061;28;20218;-83
2023/01/18 00:20:24;;;;;;;2.70;2.50;;;;;;;18.49;48.24;94332.34;5014826;28;20202;-86
2023/01/18 00:22:54;;;;;;;3.20;2.87;;;;;;;17.00;48.30;94089.81;4995027;28;20288;-86
2023/01/18 00:25:22;;;;;;;4.50;3.13;;;;;;;17.37;48.18;94212.13;5013469;28;20228;-86
2023/01/18 00:27:51;;;;;;;4.27;2.77;;;;;;;18.97;48.42;94422.56;4993809;28;20249;-86
2023/01/18 00:30:22;;;;;;;3.60;2.70;;;;;;;18.90;48.33;94415.88;4988702;28;20238;-86
2023/01/18 00:32:52;;;;;;;5.33;2.80;;;;;;;16.33;48.33;93982.97;4990586;28;20231;-85
2023/01/18 00:35:20;;;;;;;3.47;2.83;;;;;;;18.83;48.50;94402.34;4994048;28;20287;-86
2023/01/18 00:37:48;;;;;;;3.17;2.50;;;;;;;19.55;48.39;94534.03;4996024;28;20194;-85
2023/01/18 00:40:14;;;;;;;3.23;2.87;;;;;;;14.56;48.33;93690.50;5014476;28;20398;-86
2023/01/18 00:45:26;;;;;;;3.83;3.00;;;;;;;18.95;48.56;94437.84;4999885;28;20214;-83
2023/01/18 00:47:53;;;;;;;5.37;2.90;;;;;;;19.56;48.55;94537.41;4992726;28;20217;-83
2023/01/18 00:50:21;;;;;;;3.50;2.70;;;;;;;18.96;48.57;94442.09;5009943;28;20199;-83
2023/01/18 00:52:48;;;;;;;3.67;2.97;;;;;;;19.55;48.62;94548.47;4992626;28;20548;-83
2023/01/18 00:55:15;;;;;;;2.97;2.50;;;;;;;18.92;48.54;94439.59;5011532;28;20241;-83
2023/01/18 00:57:43;;;;;;;3.40;2.90;;;;;;;18.87;48.53;94426.06;4977190;28;20219;-84
2023/01/18 01:00:11;;;;;;;3.47;2.77;;;;;;;18.65;48.38;94389.00;5004754;28;20742;-83
2023/01/18 01:02:40;;;;;;;2.93;2.60;;;;;;;19.03;48.40;94461.53;5006760;28;20641;-86
2023/01/18 01:08:17;;;;;;;2.87;2.50;;;;;;;18.49;48.29;94367.09;5009331;28;20257;-86
2023/01/18 01:10:45;;;;;;;2.53;2.33;;;;;;;17.91;48.35;94270.13;5007132;28;20666;-86
2023/01/18 01:27:06;;;;;;;3.10;2.77;;;;;;;18.98;48.52;94442.09;5004913;28;20235;-86
2023/01/18 01:29:33;;;;;;;3.40;2.80;;;;;;;18.95;48.56;94429.41;4994925;28;20202;-86
2023/01/18 01:31:59;;;;;;;2.73;2.47;;;;;;;18.57;48.55;94366.19;5013245;28;20256;-85
2023/01/18 01:34:28;;;;;;;4.10;2.90;;;;;;;18.03;48.52;94283.59;5000556;28;20222;-86
2023/01/18 01:36:55;;;;;;;3.97;2.80;;;;;;;19.55;48.73;94539.13;4992316;28;20697;-85
2023/01/18 01:39:22;;;;;;;4.30;3.00;;;;;;;18.05;48.69;94286.09;5002711;28;20206;-86
2023/01/18 01:41:48;;;;;;;3.67;2.80;;;;;;;19.54;48.66;94539.97;5002470;28;20202;-86
2023/01/18 01:44:23;;;;;;;3.03;2.57;;;;;;;19.54;48.46;94542.53;5015901;28;20619;-86
2023/01/18 01:46:57;;;;;;;3.00;2.70;;;;;;;19.54;48.61;94545.06;5012159;28;20202;-86
2023/01/18 01:49:32;;;;;;;3.60;2.50;;;;;;;18.67;48.44;94397.44;5008133;28;20253;-86
2023/01/18 01:52:06;;;;;;;2.63;2.43;;;;;;;19.54;48.57;94542.53;4990916;28;20226;-86
2023/01/18 01:54:58;;;;;;;2.50;2.30;;;;;;;18.67;48.70;94393.19;5008156;28;20257;-86
2023/01/18 01:57:27;;;;;;;2.73;2.50;;;;;;;18.46;48.48;94362.88;4995693;28;20201;-86
2023/01/18 02:00:03;;;;;;;3.20;2.70;;;;;;;15.32;48.53;93855.28;4983310;28;20205;-86
2023/01/18 02:02:30;;;;;;;3.43;2.80;;;;;;;18.34;48.71;94346.84;4992692;28;20201;-86
2023/01/18 02:04:57;;;;;;;3.27;2.90;;;;;;;17.29;48.63;94166.50;4992252;28;20241;-86
2023/01/18 02:07:25;;;;;;;3.77;2.50;;;;;;;18.63;48.76;94395.78;5006493;28;20265;-86
2023/01/18 02:09:51;;;;;;;3.73;2.40;;;;;;;18.32;48.32;94348.59;5029381;22;20233;-90
2023/01/18 02:12:18;;;;;;;3.20;2.57;;;;;;;19.04;48.55;94472.56;5064028;28;20223;-89
2023/01/18 02:14:45;;;;;;;4.07;3.20;;;;;;;18.05;48.51;94306.44;5057019;28;20208;-90
2023/01/18 02:17:20;;;;;;;3.07;2.77;;;;;;;18.41;48.62;94368.88;5046369;28;20194;-89
2023/01/18 02:20:06;;;;;;;3.23;2.60;;;;;;;19.55;48.64;94553.56;5050469;28;20205;-91
2023/01/18 02:22:51;;;;;;;4.20;2.60;;;;;;;19.54;48.71;94557.81;5056870;28;20212;-89
2023/01/18 02:25:56;;;;;;;3.60;2.63;;;;;;;19.55;48.72;94571.38;5054472;28;20189;-90
2023/01/18 02:28:32;;;;;;;2.77;2.50;;;;;;;18.17;48.46;94350.38;5055209;28;20240;-90
2023/01/18 02:31:09;;;;;;;2.53;2.33;;;;;;;18.58;48.68;94412.75;5052257;28;20197;-90
2023/01/18 02:33:47;;;;;;;2.90;2.70;;;;;;;19.53;48.77;94570.56;5047733;28;20212;-90
2023/01/18 02:36:25;;;;;;;2.80;2.60;;;;;;;18.35;48.78;94372.25;5055889;28;20220;-90
2023/01/18 02:38:54;;;;;;;3.27;2.50;;;;;;;18.60;48.63;94427.19;5034524;28;20209;-91
2023/01/18 02:41:22;;;;;;;2.67;2.47;;;;;;;17.44;48.75;94240.03;5055901;28;20228;-89
2023/01/18 02:46:37;;;;;;;2.77;2.50;;;;;;;18.50;48.68;94412.00;5035784;28;20225;-90
2023/01/18 02:49:11;;;;;;;3.00;2.70;;;;;;;19.04;48.87;94501.38;5055594;28;20233;-90
2023/01/18 02:51:38;;;;;;;2.83;2.50;;;;;;;19.07;48.58;94509.00;5052039;28;20181;-90
2023/01/18 02:54:06;;;;;;;3.83;2.83;;;;;;;17.95;48.69;94340.41;5055626;28;20189;-90
2023/01/18 02:56:40;;;;;;;2.80;2.60;;;;;;;19.54;48.82;94587.53;5061129;28;20182;-90
2023/01/18 02:59:12;;;;;;;2.90;2.60;;;;;;;19.54;48.74;94588.38;5052207;28;20239;-89
2023/01/18 03:01:52;;;;;;;2.70;2.40;;;;;;;18.16;48.61;94381.75;5052053;28;20182;-90
2023/01/18 03:04:22;;;;;;;2.73;2.53;;;;;;;18.20;49.08;94367.28;5054169;28;20212;-90
2023/01/18 03:06:56;;;;;;;4.13;2.73;;;;;;;18.39;48.95;94423.94;5050099;28;20189;-90
2023/01/18 03:09:25;;;;;;;2.97;2.67;;;;;;;18.09;48.81;94352.13;5036367;28;20196;-90
2023/01/18 03:12:11;;;;;;;2.93;2.63;;;;;;;19.55;48.57;94601.94;5055681;28;20186;-90
2023/01/18 03:14:55;;;;;;;2.70;2.50;;;;;;;17.82;48.66;94319.31;5052361;28;20197;-90
2023/01/18 03:17:38;;;;;;;2.60;2.40;;;;;;;18.18;48.55;94390.19;5060105;28;20310;-89
2023/01/18 03:20:09;;;;;;;3.17;2.67;;;;;;;19.53;48.73;94614.69;5027844;28;20220;-90
2023/01/18 03:25:33;;;;;;;3.67;2.80;;;;;;;17.62;48.63;94300.81;5055308;28;20190;-89
2023/01/18 03:33:45;;;;;;;2.93;2.60;;;;;;;18.99;48.65;94525.19;5056791;28;20209;-90
2023/01/18 03:36:16;;;;;;;3.57;2.90;;;;;;;19.52;48.89;94613.03;5052735;28;20200;-89
2023/01/18 03:38:43;;;;;;;3.20;2.90;;;;;;;18.01;48.78;94366.59;5059027;28;20216;-90
2023/01/18 03:41:10;;;;;;;3.67;2.97;;;;;;;19.52;49.25;94614.72;5058685;28;20337;-90
2023/01/18 03:43:36;;;;;;;3.93;2.70;;;;;;;19.52;48.82;94619.81;5040874;28;20246;-90
2023/01/18 03:46:03;;;;;;;4.53;3.30;;;;;;;18.41;48.84;94433.25;5059688;28;20182;-90
2023/01/18 03:48:30;;;;;;;3.83;2.60;;;;;;;18.99;48.76;94525.19;5057495;28;20247;-90
2023/01/18 03:51:01;;;;;;;3.00;2.70;;;;;;;19.52;48.99;94610.47;5050859;28;20225;-90
2023/01/18 03:53:47;;;;;;;2.87;2.67;;;;;;;19.04;49.09;94528.56;5042725;28;20210;-90
2023/01/18 03:56:20;;;;;;;3.20;2.47;;;;;;;18.44;48.91;94429.84;5047514;28;20226;-90
2023/01/18 03:58:46;;;;;;;3.80;2.80;;;;;;;18.61;48.96;94471.22;5013990;28;20250;-90
2023/01/18 04:01:13;;;;;;;3.67;2.80;;;;;;;18.33;48.88;94426.50;5032159;28;20210;-89
2023/01/18 04:03:39;;;;;;;3.20;2.80;;;;;;;19.04;48.56;94544.66;5058390;28;20186;-90
2023/01/18 04:06:06;;;;;;;2.90;2.60;;;;;;;18.10;48.95;94394.50;5058985;28;20209;-90
2023/01/18 04:08:33;;;;;;;2.87;2.60;;;;;;;18.13;49.00;94391.06;5056785;28;20232;-90
2023/01/18 04:10:59;;;;;;;3.17;2.87;;;;;;;18.33;48.99;94441.75;5056450;28;20205;-90
2023/01/18 04:13:26;;;;;;;2.90;2.70;;;;;;;18.17;49.04;94393.59;5072276;28;20186;-89
2023/01/18 04:15:52;;;;;;;3.00;2.80;;;;;;;19.04;49.08;94539.56;5055570;28;20182;-90
2023/01/18 04:18:19;;;;;;;3.17;2.40;;;;;;;19.19;48.69;94562.34;5054012;28;20186;-90
2023/01/18 04:20:47;;;;;;;2.73;2.50;;;;;;;18.97;48.85;94535.38;5055309;28;20217;-90
2023/01/18 04:23:14;;;;;;;2.57;2.37;;;;;;;19.26;48.75;94581.81;5058626;28;20186;-89
2023/01/18 04:25:48;;;;;;;2.77;2.53;;;;;;;18.99;49.09;94550.63;5048339;28;20181;-90
2023/01/18 04:28:16;;;;;;;3.07;2.77;;;;;;;17.74;48.98;94338.00;5057548;28;20211;-90
2023/01/18 04:30:42;;;;;;;3.20;2.80;;;;;;;18.91;48.95;94537.13;5032238;28;20206;-90
2023/01/18 04:33:09;;;;;;;2.57;2.37;;;;;;;18.26;48.76;94418.06;5055646;28;20210;-89
2023/01/18 04:35:35;;;;;;;3.90;2.57;;;;;;;18.36;48.93;94477.31;5057509;28;20249;-90
2023/01/18 04:38:02;;;;;;;3.00;2.70;;;;;;;17.74;48.58;94376.09;5056023;28;20217;-90
2023/01/18 04:40:28;;;;;;;3.00;2.70;;;;;;;19.52;48.58;94638.50;5057852;28;20213;-89
2023/01/18 04:42:55;;;;;;;3.63;2.87;;;;;;;18.16;48.96;94412.22;5063009;28;20182;-90
2023/01/18 04:45:23;;;;;;;2.90;2.70;;;;;;;18.31;49.37;94444.31;5053573;28;20229;-89
2023/01/18 04:47:50;;;;;;;3.17;2.87;;;;;;;18.13;49.12;94440.19;5044643;28;20206;-90
2023/01/18 04:50:16;;;;;;;3.40;2.90;;;;;;;17.94;48.83;94405.59;5055566;28;20256;-89
2023/01/18 04:52:43;;;;;;;3.00;2.70;;;;;;;19.08;48.54;94570.91;5052486;28;20209;-89
2023/01/18 04:55:14;;;;;;;2.80;2.60;;;;;;;17.99;48.89;94383.53;5051633;28;20181;-90
2023/01/18 04:57:41;;;;;;;3.20;2.83;;;;;;;19.29;49.14;94604.72;5051635;28;20189;-90
2023/01/18 05:00:09;;;;;;;2.80;2.60;;;;;;;19.21;48.98;94582.69;5044583;28;20213;-90
2023/01/18 05:02:36;;;;;;;3.10;2.80;;;;;;;19.08;48.92;94568.38;5053661;28;20190;-90
2023/01/18 05:05:04;;;;;;;3.23;2.93;;;;;;;19.04;48.85;94589.63;5047255;28;20185;-90
2023/01/18 05:07:32;;;;;;;3.97;2.43;;;;;;;18.96;49.04;94543.88;5042731;28;20187;-89
2023/01/18 05:10:02;;;;;;;3.33;3.03;;;;;;;18.33;48.85;94434.13;5030459;28;20209;-90
2023/01/18 05:12:28;;;;;;;2.60;2.40;;;;;;;18.22;48.89;94411.34;5055290;28;20190;-89
2023/01/18 05:14:55;;;;;;;3.00;2.70;;;;;;;18.82;48.94;94511.75;5039205;28;20182;-89
2023/01/18 05:17:26;;;;;;;2.80;2.60;;;;;;;18.43;48.83;94466.28;5050274;28;20212;-89
2023/01/18 05:19:53;;;;;;;2.90;2.70;;;;;;;18.24;48.82;94451.13;5054185;28;20225;-89
2023/01/18 05:22:21;;;;;;;2.83;2.63;;;;;;;19.62;48.67;94660.47;5047728;28;20190;-89
2023/01/18 05:24:48;;;;;;;2.80;2.60;;;;;;;18.12;48.72;94432.59;5049129;28;20182;-89
2023/01/18 05:27:15;;;;;;;2.90;2.70;;;;;;;18.59;48.58;94522.09;5051370;28;20209;-88
2023/01/18 05:29:42;;;;;;;3.13;2.80;;;;;;;18.64;48.46;94511.88;5047817;28;20214;-89
2023/01/18 05:32:10;;;;;;;2.73;2.53;;;;;;;18.23;48.64;94470.63;5047008;28;20190;-90
2023/01/18 05:34:36;;;;;;;3.10;2.60;;;;;;;18.41;48.68;94499.34;5051901;28;20245;-90
2023/01/18 05:37:03;;;;;;;3.33;2.80;;;;;;;18.65;48.84;94533.94;5057397;28;20185;-89
2023/01/18 05:39:30;;;;;;;2.70;2.50;;;;;;;18.37;48.27;94496.78;5055952;28;20225;-90
2023/01/18 05:41:56;;;;;;;2.50;2.30;;;;;;;19.22;48.63;94620.84;5055592;28;20181;-89
2023/01/18 05:44:25;;;;;;;2.90;2.70;;;;;;;19.54;48.65;94669.03;5039551;28;20209;-89
2023/01/18 05:46:52;;;;;;;2.63;2.43;;;;;;;19.29;48.61;94626.78;5056266;28;20217;-88
2023/01/18 05:49:18;;;;;;;2.90;2.70;;;;;;;18.88;48.70;94560.91;5053787;28;20221;-88
2023/01/18 05:51:45;;;;;;;2.80;2.60;;;;;;;19.16;48.95;94603.09;5051204;28;20181;-88
2023/01/18 05:54:12;;;;;;;2.80;2.60;;;;;;;18.82;48.70;94545.69;5048056;28;20202;-88
2023/01/18 05:56:38;;;;;;;2.50;2.30;;;;;;;19.28;48.58;94631.06;5049492;28;20209;-89
2023/01/18 05:59:05;;;;;;;2.87;2.67;;;;;;;17.99;48.73;94428.41;5048178;28;20213;-89
2023/01/18 06:01:31;;;;;;;2.67;2.47;;;;;;;19.49;48.49;94665.69;5047824;28;20232;-88
2023/01/18 06:03:58;;;;;;;3.17;2.77;;;;;;;18.23;48.60;94465.56;5043018;28;20198;-88
2023/01/18 06:06:25;;;;;;;5.60;4.43;;;;;;;18.45;46.43;94501.03;5042858;28;20212;-89
2023/01/18 06:08:51;;;;;;;5.87;5.30;;;;;;;18.09;44.31;94446.13;5044955;28;20233;-89
2023/01/18 06:11:18;;;;;;;9.30;6.17;;;;;;;18.95;42.96;94590.53;5043318;28;20240;-90
2023/01/18 06:13:44;;;;;;;6.30;5.70;;;;;;;18.02;41.96;94447.03;5045975;28;20463;-90
2023/01/18 06:16:12;;;;;;;7.40;6.70;;;;;;;19.11;40.87;94626.88;5048707;28;20232;-90
2023/01/18 06:18:40;;;;;;;7.03;6.33;;;;;;;19.01;39.94;94618.47;5054104;28;20208;-90
2023/01/18 06:21:07;;;;;;;8.03;6.77;;;;;;;18.75;39.54;94587.28;5046406;28;20209;-91
2023/01/18 06:23:34;;;;;;;6.97;6.27;;;;;;;17.91;39.81;94465.72;5024119;28;20206;-90
2023/01/18 06:26:00;;;;;;;6.90;6.20;;;;;;;18.14;38.83;94495.25;5060044;28;20197;-91
2023/01/18 06:28:27;;;;;;;7.03;6.33;;;;;;;18.46;38.39;94575.56;5048448;28;20202;-90
2023/01/18 06:30:56;;;;;;;7.80;6.07;;;;;;;18.99;38.89;94650.72;5045318;28;20241;-90
2023/01/18 06:33:23;;;;;;;6.50;5.87;;;;;;;18.39;39.70;94595.13;5044195;28;20209;-91
2023/01/18 06:35:49;;;;;;;8.07;6.50;;;;;;;17.94;40.43;94491.94;5053929;28;20209;-91
2023/01/18 06:38:16;;;;;;;7.20;5.20;;;;;;;17.94;40.78;94496.19;5056491;28;20194;-90
2023/01/18 06:40:42;;;;;;;6.30;5.70;;;;;;;19.43;41.72;94744.66;5056294;28;20209;-91
2023/01/18 06:43:12;;;;;;;7.07;5.23;;;;;;;18.45;42.32;94591.69;5053634;28;20182;-94
2023/01/18 06:45:40;;;;;;;6.87;4.93;;;;;;;18.33;42.60;94579.00;5052121;28;20237;-95
2023/01/18 06:48:07;;;;;;;6.37;5.07;;;;;;;18.50;42.74;94607.78;5037302;28;20199;-94
2023/01/18 06:50:33;;;;;;;7.20;5.57;;;;;;;17.58;43.39;94451.50;5021760;28;20233;-93
2023/01/18 06:53:00;;;;;;;5.50;5.00;;;;;;;19.15;43.18;94727.81;5050795;28;20258;-91
2023/01/18 06:55:27;;;;;;;5.40;4.90;;;;;;;18.61;43.11;94657.72;5053081;28;20185;-88
2023/01/18 06:57:55;;;;;;;7.20;5.27;;;;;;;18.76;42.73;94659.34;5040435;28;20213;-93
2023/01/18 07:00:22;;;;;;;6.93;5.13;;;;;;;18.72;42.63;94648.34;5041334;28;20277;-90
2023/01/18 07:02:50;;;;;;;7.50;5.67;;;;;;;19.38;42.81;94771.84;5050146;28;20209;-90
2023/01/18 07:05:17;;;;;;;5.63;4.67;;;;;;;18.48;42.96;94625.59;5067273;28;20275;-93
2023/01/18 07:07:45;;;;;;;5.33;4.80;;;;;;;18.40;42.92;94603.56;5035606;28;20197;-94
2023/01/18 07:10:11;;;;;;;5.63;5.13;;;;;;;17.87;43.46;94522.47;5054594;28;20217;-91
2023/01/18 07:12:42;;;;;;;4.73;4.33;;;;;;;17.97;43.91;94539.38;5053528;28;20193;-91
2023/01/18 07:15:09;;;;;;;5.77;5.17;;;;;;;18.16;44.07;94576.56;5056424;28;20205;-90
2023/01/18 07:17:49;;;;;;;8.33;4.70;;;;;;;18.55;44.39;94641.63;5051031;28;20182;-91
2023/01/18 07:20:15;;;;;;;4.77;4.33;;;;;;;17.98;44.69;94563.91;5030074;28;20228;-91
2023/01/18 07:22:42;;;;;;;6.77;4.50;;;;;;;18.95;44.83;94712.66;5048463;28;20185;-91
2023/01/18 07:25:12;;;;;;;5.97;4.33;;;;;;;18.93;45.23;94713.53;5048937;28;20225;-91
2023/01/18 07:27:42;;;;;;;5.03;4.37;;;;;;;18.03;44.86;94588.44;5051763;28;20208;-91
2023/01/18 07:30:11;;;;;;;7.13;3.83;;;;;;;18.97;45.26;94712.66;5055694;28;20225;-91
2023/01/18 07:32:38;;;;;;;5.03;4.50;;;;;;;19.37;45.30;94780.34;5053624;28;20209;-91
2023/01/18 07:35:05;;;;;;;4.30;3.90;;;;;;;18.97;45.53;94713.50;5051397;28;20186;-91
2023/01/18 07:37:32;;;;;;;6.13;4.23;;;;;;;18.50;45.49;94640.84;5045996;28;20221;-91
2023/01/18 07:39:59;;;;;;;4.30;3.90;;;;;;;18.97;45.51;94721.13;5057101;28;20206;-92
2023/01/18 07:42:25;;;;;;;4.37;3.97;;;;;;;17.84;45.62;94530.97;5051825;28;20181;-91
2023/01/18 07:44:52;;;;;;;3.97;3.67;;;;;;;18.12;45.56;94577.44;5045722;28;20190;-91
2023/01/18 07:47:18;;;;;;;6.23;4.43;;;;;;;18.99;45.49;94736.41;5045398;28;20186;-91
2023/01/18 07:49:45;;;;;;;5.30;3.97;;;;;;;18.96;45.89;94729.63;5052882;28;20213;-91
2023/01/18 07:52:12;;;;;;;6.77;4.17;;;;;;;18.50;46.06;94661.19;5055342;28;20194;-90
2023/01/18 07:54:39;;;;;;;6.83;4.17;;;;;;;18.99;46.22;94742.34;5049310;28;20182;-91
2023/01/18 07:57:05;;;;;;;6.23;4.43;;;;;;;18.67;46.37;94688.22;5041203;28;20197;-87
2023/01/18 07:59:32;;;;;;;4.67;4.07;;;;;;;19.18;46.38;94786.34;5018646;28;20629;-88
2023/01/18 08:01:59;;;;;;;7.40;4.40;;;;;;;19.24;46.58;94787.16;4995492;28;20206;-88
2023/01/18 08:04:25;;;;;;;4.70;3.90;;;;;;;19.15;46.67;94766.84;5008404;28;20210;-86
2023/01/18 08:06:52;;;;;;;6.33;4.40;;;;;;;19.18;46.60;94783.78;5008345;28;20242;-88
2023/01/18 08:09:18;;;;;;;5.23;4.20;;;;;;;19.24;46.21;94805.00;5012564;28;20253;-88
2023/01/18 08:11:45;;;;;;;5.53;4.20;;;;;;;18.67;46.81;94706.00;5003390;28;20211;-90
2023/01/18 08:22:15;;;;;;;10.63;8.40;;;;;;;19.08;41.15;94792.34;5030880;28;20225;-89
2023/01/18 08:24:42;;;;;;;9.20;8.30;;;;;;;19.29;41.36;94823.69;5011603;28;20296;-88
2023/01/18 08:27:08;;;;;;;9.33;8.20;;;;;;;18.80;41.36;94743.25;5001726;28;20201;-88
2023/01/18 08:29:35;;;;;;;10.63;7.80;;;;;;;18.88;42.72;94758.50;5011404;28;20658;-88
2023/01/18 08:32:02;;;;;;;11.30;8.30;;;;;;;19.35;42.79;94848.25;4980093;28;20202;-89
2023/01/18 08:34:29;;;;;;;8.37;6.93;;;;;;;18.96;43.50;94787.31;4992841;28;20210;-88
2023/01/18 08:36:55;;;;;;;8.10;7.27;;;;;;;19.12;43.49;94817.78;5009494;28;20217;-88
2023/01/18 08:39:22;;;;;;;8.67;7.20;;;;;;;19.09;44.08;94819.47;4975306;28;20205;-88
2023/01/18 08:41:48;;;;;;;7.73;6.90;;;;;;;19.23;44.12;94848.28;4974210;28;20289;-88
2023/01/18 08:44:15;;;;;;;10.10;7.37;;;;;;;19.18;44.17;94845.75;5012914;28;20210;-89
2023/01/18 08:46:41;;;;;;;11.63;6.93;;;;;;;19.31;44.87;94864.41;4975526;28;20772;-88
2023/01/18 08:49:09;;;;;;;9.90;7.40;;;;;;;19.24;44.65;94850.81;4975651;28;20242;-88
2023/01/18 08:51:35;;;;;;;11.73;7.27;;;;;;;19.47;44.23;94894.91;4984197;28;20296;-88
2023/01/18 08:54:02;;;;;;;9.57;6.73;;;;;;;19.23;44.47;94864.41;4994356;28;20202;-89
2023/01/18 08:56:28;;;;;;;15.23;7.47;;;;;;;19.26;44.54;94881.34;4970557;28;20202;-88
2023/01/18 08:58:56;;;;;;;9.20;7.07;;;;;;;19.20;44.94;94879.69;4999160;28;20203;-88
2023/01/18 09:01:23;;;;;;;11.43;7.03;;;;;;;19.34;44.86;94900.03;4976904;28;20664;-88
2023/01/18 09:03:52;;;;;;;12.40;6.30;;;;;;;19.18;45.00;94876.28;5007845;28;20207;-88
2023/01/18 09:06:19;;;;;;;10.50;6.73;;;;;;;19.36;45.34;94913.63;4987377;28;20816;-88
2023/01/18 09:08:49;;;;;;;13.57;7.10;;;;;;;19.12;45.24;94875.47;4971423;28;20256;-89
2023/01/18 09:11:15;;;;;;;10.90;7.13;;;;;;;19.26;45.11;94901.72;4975362;28;20226;-88
2023/01/18 09:13:42;;;;;;;10.27;6.70;;;;;;;19.20;45.08;94889.00;4987829;28;20202;-86
2023/01/18 09:16:25;;;;;;;11.93;6.97;;;;;;;19.45;45.12;94934.78;4981153;28;20229;-86
2023/01/18 09:18:54;;;;;;;9.57;7.27;;;;;;;19.22;45.62;94897.50;4970518;28;20206;-88
2023/01/18 09:21:20;;;;;;;8.97;6.13;;;;;;;19.27;45.54;94917.03;4984639;28;20234;-88
2023/01/18 09:23:47;;;;;;;13.63;7.10;;;;;;;19.23;45.41;94914.47;4972966;28;20348;-88
2023/01/18 09:26:15;;;;;;;12.60;6.80;;;;;;;19.32;45.56;94938.25;4973816;28;20799;-89
2023/01/18 09:28:43;;;;;;;11.87;6.50;;;;;;;19.47;45.63;94963.66;4972836;28;20206;-89
2023/01/18 09:31:11;;;;;;;8.93;5.93;;;;;;;19.49;45.90;94978.94;4988226;28;20238;-88
2023/01/18 09:33:38;;;;;;;9.10;6.03;;;;;;;19.36;45.85;94970.47;5007181;28;20216;-88
2023/01/18 09:36:08;;;;;;;11.10;6.50;;;;;;;19.22;45.68;94945.88;4974055;28;20242;-88
2023/01/18 09:38:36;;;;;;;9.80;6.83;;;;;;;19.42;45.75;94988.28;4989933;28;20210;-89
2023/01/18 09:41:05;;;;;;;9.27;6.53;;;;;;;19.08;46.05;94935.72;4988670;28;20317;-89
2023/01/18 09:43:41;;;;;;;10.43;6.17;;;;;;;19.44;46.28;94995.91;4972935;28;20210;-88
2023/01/18 09:46:16;;;;;;;9.20;6.07;;;;;;;19.23;46.37;94961.16;4990082;28;20231;-88
2023/01/18 09:48:43;;;;;;;8.30;6.07;;;;;;;18.96;46.47;94920.47;4972710;28;20269;-89
2023/01/18 09:51:47;;;;;;;7.57;5.70;;;;;;;19.08;46.72;94943.38;4971894;28;20272;-89
2023/01/18 09:54:48;;;;;;;7.27;6.03;;;;;;;19.21;46.44;94960.28;5003002;28;20210;-88
2023/01/18 09:57:17;;;;;;;7.20;5.77;;;;;;;19.54;46.58;95013.72;4972046;28;20206;-89
2023/01/18 09:59:55;;;;;;;7.33;5.57;;;;;;;19.54;46.44;95013.72;5003499;28;20633;-89
2023/01/18 10:02:24;;;;;;;12.93;6.60;;;;;;;19.39;46.49;95001.03;4988052;28;20741;-88
2023/01/18 10:04:59;;;;;;;9.90;5.87;;;;;;;19.13;46.58;94962.00;4973350;28;20194;-89
2023/01/18 10:07:27;;;;;;;6.77;5.70;;;;;;;19.31;46.72;94999.34;4971289;28;20202;-88
2023/01/18 10:09:55;;;;;;;6.60;5.83;;;;;;;19.39;46.57;95015.47;4988575;28;20218;-88
2023/01/18 10:12:39;;;;;;;7.27;5.43;;;;;;;19.47;46.61;95036.66;4986326;28;20199;-88
2023/01/18 10:15:20;;;;;;;9.87;5.67;;;;;;;19.55;46.76;95051.09;4973644;28;20205;-89
2023/01/18 10:17:49;;;;;;;7.97;6.10;;;;;;;19.40;46.48;95035.84;4999955;28;20202;-86
2023/01/18 10:20:19;;;;;;;6.93;6.20;;;;;;;19.15;46.54;94984.91;4972216;28;20240;-88
2023/01/18 10:23:02;;;;;;;9.93;5.77;;;;;;;19.26;46.65;95009.50;4988753;28;20582;-88
2023/01/18 10:25:41;;;;;;;8.63;5.33;;;;;;;19.39;46.68;95026.50;4988407;28;20289;-89
2023/01/18 10:28:17;;;;;;;6.83;5.60;;;;;;;19.56;46.72;95057.88;4987592;28;20241;-88
2023/01/18 10:31:14;;;;;;;7.73;5.63;;;;;;;19.56;46.69;95062.97;5005284;28;20225;-88
2023/01/18 10:33:42;;;;;;;10.40;6.20;;;;;;;19.35;46.58;95029.03;5005046;28;20202;-88
2023/01/18 10:36:17;;;;;;;8.40;5.90;;;;;;;19.33;46.65;95035.84;4985064;28;20289;-89
2023/01/18 10:38:44;;;;;;;6.20;5.60;;;;;;;19.36;46.88;95044.31;4969708;28;20214;-88
2023/01/18 10:41:24;;;;;;;7.77;5.70;;;;;;;19.42;46.72;95067.22;4985667;28;20257;-89
2023/01/18 10:43:51;;;;;;;6.00;5.40;;;;;;;19.34;46.77;95053.69;4984879;28;20206;-88
2023/01/18 10:46:18;;;;;;;10.03;5.70;;;;;;;19.47;46.80;95078.28;4964379;28;20206;-87
2023/01/18 10:48:47;;;;;;;6.67;5.20;;;;;;;19.15;46.89;95020.53;4998318;28;20554;-89
2023/01/18 10:51:28;;;;;;;6.37;5.10;;;;;;;19.20;46.79;95041.75;4979160;28;20317;-88
2023/01/18 10:53:55;;;;;;;6.90;5.50;;;;;;;19.56;46.86;95100.31;4999263;28;20206;-88
2023/01/18 10:56:25;;;;;;;5.50;4.93;;;;;;;19.28;46.94;95066.41;4964993;28;20669;-88
2023/01/18 10:58:54;;;;;;;6.40;5.37;;;;;;;19.56;46.86;95116.47;4980776;28;20216;-89
2023/01/18 11:01:26;;;;;;;7.90;5.33;;;;;;;19.33;46.96;95084.22;4998516;28;20257;-88
2023/01/18 11:04:06;;;;;;;6.13;5.20;;;;;;;19.57;46.76;95130.06;4986558;28;20292;-88
2023/01/18 11:06:50;;;;;;;6.47;5.83;;;;;;;19.19;46.65;95062.97;4986151;28;20229;-88
2023/01/18 11:09:45;;;;;;;5.67;5.07;;;;;;;19.56;46.77;95138.53;4969504;28;20531;-88
2023/01/18 11:12:33;;;;;;;5.93;4.97;;;;;;;19.56;46.70;95147.03;4984329;28;20289;-89
2023/01/18 11:15:30;;;;;;;5.50;5.00;;;;;;;19.47;46.76;95133.44;4997564;28;20242;-88
2023/01/18 11:17:57;;;;;;;5.47;4.97;;;;;;;19.57;46.83;95155.53;4973868;28;20228;-89
2023/01/18 11:20:34;;;;;;;5.30;4.70;;;;;;;19.39;46.66;95130.91;4999343;28;20253;-88
2023/01/18 11:23:13;;;;;;;4.87;4.23;;;;;;;19.56;46.67;95166.56;4975474;28;20296;-88
2023/01/18 11:25:50;;;;;;;5.67;4.67;;;;;;;19.35;46.88;95141.94;5005251;28;20228;-88
2023/01/18 11:28:25;;;;;;;4.53;4.13;;;;;;;19.56;46.54;95184.38;4972759;28;20298;-89
2023/01/18 11:30:59;;;;;;;4.77;4.30;;;;;;;18.91;46.55;95072.31;5002871;28;20228;-89
2023/01/18 11:33:26;;;;;;;5.20;4.40;;;;;;;19.28;46.29;95144.50;4973644;28;20237;-89
2023/01/18 11:35:58;;;;;;;5.33;4.50;;;;;;;19.40;46.54;95159.78;4974998;28;20297;-90
2023/01/18 11:38:29;;;;;;;5.87;4.47;;;;;;;19.34;46.29;95157.22;4986498;28;20636;-89
2023/01/18 11:41:06;;;;;;;4.60;4.20;;;;;;;19.57;46.27;95191.19;4968401;28;20702;-89
2023/01/18 11:43:34;;;;;;;5.67;4.07;;;;;;;19.39;46.21;95175.91;4992313;28;20209;-89
2023/01/18 11:46:08;;;;;;;4.63;4.20;;;;;;;19.31;46.17;95164.84;4974548;28;20337;-89
2023/01/18 11:48:51;;;;;;;4.03;3.60;;;;;;;19.32;46.17;95164.84;4971323;28;20218;-88
2023/01/18 11:51:33;;;;;;;4.57;3.90;;;;;;;19.40;45.85;95196.28;5005073;28;20230;-89
2023/01/18 11:54:08;;;;;;;6.03;4.00;;;;;;;19.49;46.07;95221.75;4996051;28;20268;-88
2023/01/18 11:56:49;;;;;;;6.57;3.97;;;;;;;19.13;46.13;95145.28;4991273;28;20210;-89
2023/01/18 11:59:19;;;;;;;6.73;4.00;;;;;;;19.58;46.23;95220.91;4986764;28;20210;-89
2023/01/18 12:02:01;;;;;;;6.37;3.83;;;;;;;19.58;46.38;95231.09;5013276;28;20293;-90
2023/01/18 12:05:09;;;;;;;6.40;3.70;;;;;;;19.41;46.30;95209.84;5011935;28;20207;-88
2023/01/18 12:07:53;;;;;;;4.03;3.33;;;;;;;19.57;46.50;95248.06;4973354;28;20202;-89
2023/01/18 12:10:24;;;;;;;4.63;3.70;;;;;;;19.44;46.37;95237.88;5002925;28;20694;-89
2023/01/18 12:13:15;;;;;;;5.77;3.50;;;;;;;19.57;46.40;95260.81;4980317;28;20202;-89
2023/01/18 12:15:42;;;;;;;4.83;3.63;;;;;;;19.57;46.57;95268.44;5012132;28;20214;-89
2023/01/18 12:18:15;;;;;;;7.13;3.43;;;;;;;19.57;46.49;95267.63;5014247;28;20297;-90
2023/01/18 12:21:11;;;;;;;6.80;3.33;;;;;;;18.86;46.56;95149.50;5010246;28;20221;-89
2023/01/18 12:24:05;;;;;;;3.50;3.17;;;;;;;19.57;46.96;95265.91;4988886;28;20332;-89
2023/01/18 12:26:51;;;;;;;7.23;3.23;;;;;;;19.57;46.93;95276.09;4988274;28;20218;-89